sensor_id;sensor_type;location;lat;lon;timestamp;P1;durP1;ratioP1;P2;durP2;ratioP2
76136;SDS011;65394;53.172;18.164;2023-02-12T00:02:01;8.40;;;2.60;;
76136;SDS011;65394;53.172;18.164;2023-02-12T00:04:28;8.70;;;2.50;;
76136;SDS011;65394;53.172;18.164;2023-02-12T00:06:54;7.20;;;2.20;;
76136;SDS011;65394;53.172;18.164;2023-02-12T00:09:21;8.90;;;2.30;;
76136;SDS011;65394;53.172;18.164;2023-02-12T00:11:47;7.80;;;2.00;;
76136;SDS011;65394;53.172;18.164;2023-02-12T00:14:14;6.30;;;1.70;;
76136;SDS011;65394;53.172;18.164;2023-02-12T00:16:40;6.40;;;1.60;;
76136;SDS011;65394;53.172;18.164;2023-02-12T00:19:07;11.70;;;2.00;;
76136;SDS011;65394;53.172;18.164;2023-02-12T00:21:35;10.20;;;2.40;;
76136;SDS011;65394;53.172;18.164;2023-02-12T00:24:02;7.30;;;2.30;;
76136;SDS011;65394;53.172;18.164;2023-02-12T00:26:29;6.90;;;1.70;;
76136;SDS011;65394;53.172;18.164;2023-02-12T00:28:55;6.10;;;1.70;;
76136;SDS011;65394;53.172;18.164;2023-02-12T00:31:23;7.30;;;1.70;;
76136;SDS011;65394;53.172;18.164;2023-02-12T00:33:51;7.90;;;1.80;;
76136;SDS011;65394;53.172;18.164;2023-02-12T00:36:20;7.00;;;2.00;;
76136;SDS011;65394;53.172;18.164;2023-02-12T00:38:50;6.90;;;2.50;;
76136;SDS011;65394;53.172;18.164;2023-02-12T00:41:18;6.80;;;2.10;;
76136;SDS011;65394;53.172;18.164;2023-02-12T00:43:46;8.40;;;2.00;;
76136;SDS011;65394;53.172;18.164;2023-02-12T00:46:13;7.50;;;2.10;;
76136;SDS011;65394;53.172;18.164;2023-02-12T00:48:40;8.80;;;2.30;;
76136;SDS011;65394;53.172;18.164;2023-02-12T00:51:07;7.20;;;1.90;;
76136;SDS011;65394;53.172;18.164;2023-02-12T00:53:34;7.00;;;2.00;;
76136;SDS011;65394;53.172;18.164;2023-02-12T00:56:01;7.30;;;1.90;;
76136;SDS011;65394;53.172;18.164;2023-02-12T00:58:28;6.10;;;2.00;;
76136;SDS011;65394;53.172;18.164;2023-02-12T01:00:55;6.50;;;2.10;;
76136;SDS011;65394;53.172;18.164;2023-02-12T01:03:23;6.40;;;1.60;;
76136;SDS011;65394;53.172;18.164;2023-02-12T01:05:51;6.70;;;2.00;;
76136;SDS011;65394;53.172;18.164;2023-02-12T01:08:20;8.30;;;3.00;;
76136;SDS011;65394;53.172;18.164;2023-02-12T01:10:53;7.50;;;2.90;;
76136;SDS011;65394;53.172;18.164;2023-02-12T01:13:24;11.90;;;4.00;;
76136;SDS011;65394;53.172;18.164;2023-02-12T01:18:50;15.40;;;4.50;;
76136;SDS011;65394;53.172;18.164;2023-02-12T01:21:19;8.30;;;3.20;;
76136;SDS011;65394;53.172;18.164;2023-02-12T01:23:48;9.40;;;3.10;;
76136;SDS011;65394;53.172;18.164;2023-02-12T01:26:16;10.10;;;3.20;;
76136;SDS011;65394;53.172;18.164;2023-02-12T01:28:47;12.60;;;3.90;;
76136;SDS011;65394;53.172;18.164;2023-02-12T01:31:17;10.60;;;3.10;;
76136;SDS011;65394;53.172;18.164;2023-02-12T01:33:50;9.50;;;3.00;;
76136;SDS011;65394;53.172;18.164;2023-02-12T01:36:18;8.70;;;2.70;;
76136;SDS011;65394;53.172;18.164;2023-02-12T01:38:46;9.90;;;3.00;;
76136;SDS011;65394;53.172;18.164;2023-02-12T01:41:17;8.30;;;2.60;;
76136;SDS011;65394;53.172;18.164;2023-02-12T01:44:04;7.50;;;2.40;;
76136;SDS011;65394;53.172;18.164;2023-02-12T01:46:47;8.40;;;2.20;;
76136;SDS011;65394;53.172;18.164;2023-02-12T01:49:17;9.50;;;2.50;;
76136;SDS011;65394;53.172;18.164;2023-02-12T01:51:45;10.20;;;3.20;;
76136;SDS011;65394;53.172;18.164;2023-02-12T01:54:14;9.00;;;2.90;;
76136;SDS011;65394;53.172;18.164;2023-02-12T01:56:45;9.50;;;3.40;;
76136;SDS011;65394;53.172;18.164;2023-02-12T01:59:12;9.60;;;2.80;;
76136;SDS011;65394;53.172;18.164;2023-02-12T02:01:39;8.30;;;2.60;;
76136;SDS011;65394;53.172;18.164;2023-02-12T02:04:10;13.00;;;3.60;;
76136;SDS011;65394;53.172;18.164;2023-02-12T02:06:59;12.30;;;4.10;;
76136;SDS011;65394;53.172;18.164;2023-02-12T02:09:28;13.40;;;3.10;;
76136;SDS011;65394;53.172;18.164;2023-02-12T02:11:57;8.40;;;2.90;;
76136;SDS011;65394;53.172;18.164;2023-02-12T02:14:42;9.80;;;2.90;;
76136;SDS011;65394;53.172;18.164;2023-02-12T02:23:12;7.90;;;2.50;;
76136;SDS011;65394;53.172;18.164;2023-02-12T02:28:55;8.60;;;2.70;;
76136;SDS011;65394;53.172;18.164;2023-02-12T02:37:02;7.70;;;2.20;;
76136;SDS011;65394;53.172;18.164;2023-02-12T02:39:42;10.60;;;2.90;;
76136;SDS011;65394;53.172;18.164;2023-02-12T02:42:17;10.10;;;3.30;;
76136;SDS011;65394;53.172;18.164;2023-02-12T02:44:53;11.50;;;4.40;;
76136;SDS011;65394;53.172;18.164;2023-02-12T02:47:27;13.10;;;4.20;;
76136;SDS011;65394;53.172;18.164;2023-02-12T02:50:08;14.00;;;4.00;;
76136;SDS011;65394;53.172;18.164;2023-02-12T02:52:43;15.30;;;5.20;;
76136;SDS011;65394;53.172;18.164;2023-02-12T02:55:16;13.60;;;5.10;;
76136;SDS011;65394;53.172;18.164;2023-02-12T02:57:46;12.80;;;5.00;;
76136;SDS011;65394;53.172;18.164;2023-02-12T03:02:46;13.30;;;5.40;;
76136;SDS011;65394;53.172;18.164;2023-02-12T03:05:20;13.60;;;4.80;;
76136;SDS011;65394;53.172;18.164;2023-02-12T03:07:58;15.00;;;4.40;;
76136;SDS011;65394;53.172;18.164;2023-02-12T03:10:40;16.70;;;4.70;;
76136;SDS011;65394;53.172;18.164;2023-02-12T03:13:16;12.90;;;4.50;;
76136;SDS011;65394;53.172;18.164;2023-02-12T03:15:54;12.10;;;4.80;;
76136;SDS011;65394;53.172;18.164;2023-02-12T03:18:32;11.60;;;4.00;;
76136;SDS011;65394;53.172;18.164;2023-02-12T03:21:13;15.60;;;5.50;;
76136;SDS011;65394;53.172;18.164;2023-02-12T03:23:56;16.80;;;5.30;;
76136;SDS011;65394;53.172;18.164;2023-02-12T03:26:33;15.20;;;5.50;;
76136;SDS011;65394;53.172;18.164;2023-02-12T03:29:06;23.60;;;8.40;;
76136;SDS011;65394;53.172;18.164;2023-02-12T03:34:54;12.90;;;4.10;;
76136;SDS011;65394;53.172;18.164;2023-02-12T03:37:20;16.20;;;5.40;;
76136;SDS011;65394;53.172;18.164;2023-02-12T03:40:21;15.00;;;6.10;;
76136;SDS011;65394;53.172;18.164;2023-02-12T03:42:56;15.60;;;5.40;;
76136;SDS011;65394;53.172;18.164;2023-02-12T03:45:41;15.00;;;4.70;;
76136;SDS011;65394;53.172;18.164;2023-02-12T03:48:12;14.90;;;4.60;;
76136;SDS011;65394;53.172;18.164;2023-02-12T03:50:52;11.50;;;4.50;;
76136;SDS011;65394;53.172;18.164;2023-02-12T03:53:31;13.00;;;4.90;;
76136;SDS011;65394;53.172;18.164;2023-02-12T03:56:00;14.00;;;4.50;;
76136;SDS011;65394;53.172;18.164;2023-02-12T03:58:34;10.70;;;3.30;;
76136;SDS011;65394;53.172;18.164;2023-02-12T04:01:03;10.20;;;3.30;;
76136;SDS011;65394;53.172;18.164;2023-02-12T04:03:30;10.30;;;3.30;;
76136;SDS011;65394;53.172;18.164;2023-02-12T04:05:57;9.70;;;3.00;;
76136;SDS011;65394;53.172;18.164;2023-02-12T04:08:25;9.30;;;3.10;;
76136;SDS011;65394;53.172;18.164;2023-02-12T04:16:26;8.90;;;2.50;;
76136;SDS011;65394;53.172;18.164;2023-02-12T04:18:58;10.10;;;2.80;;
76136;SDS011;65394;53.172;18.164;2023-02-12T04:27:56;9.10;;;2.90;;
76136;SDS011;65394;53.172;18.164;2023-02-12T04:30:20;14.40;;;4.10;;
76136;SDS011;65394;53.172;18.164;2023-02-12T04:32:52;15.00;;;4.40;;
76136;SDS011;65394;53.172;18.164;2023-02-12T04:35:23;15.70;;;4.80;;
76136;SDS011;65394;53.172;18.164;2023-02-12T04:40:50;12.00;;;4.10;;
76136;SDS011;65394;53.172;18.164;2023-02-12T04:43:36;13.80;;;4.20;;
76136;SDS011;65394;53.172;18.164;2023-02-12T04:46:04;12.50;;;3.90;;
76136;SDS011;65394;53.172;18.164;2023-02-12T04:48:32;10.00;;;2.60;;
76136;SDS011;65394;53.172;18.164;2023-02-12T04:51:00;8.50;;;2.90;;
76136;SDS011;65394;53.172;18.164;2023-02-12T04:53:26;8.00;;;2.80;;
76136;SDS011;65394;53.172;18.164;2023-02-12T04:55:53;7.40;;;2.80;;
76136;SDS011;65394;53.172;18.164;2023-02-12T04:58:20;7.20;;;1.90;;
76136;SDS011;65394;53.172;18.164;2023-02-12T05:00:47;9.00;;;2.00;;
76136;SDS011;65394;53.172;18.164;2023-02-12T05:03:13;7.10;;;2.40;;
76136;SDS011;65394;53.172;18.164;2023-02-12T05:05:40;6.70;;;2.20;;
76136;SDS011;65394;53.172;18.164;2023-02-12T05:08:06;8.30;;;2.40;;
76136;SDS011;65394;53.172;18.164;2023-02-12T05:10:33;9.50;;;3.00;;
76136;SDS011;65394;53.172;18.164;2023-02-12T05:12:59;7.80;;;2.20;;
76136;SDS011;65394;53.172;18.164;2023-02-12T05:15:26;8.90;;;3.00;;
76136;SDS011;65394;53.172;18.164;2023-02-12T05:17:52;11.90;;;3.90;;
76136;SDS011;65394;53.172;18.164;2023-02-12T05:20:19;16.20;;;5.00;;
76136;SDS011;65394;53.172;18.164;2023-02-12T05:22:49;10.60;;;3.80;;
76136;SDS011;65394;53.172;18.164;2023-02-12T05:25:17;9.70;;;3.30;;
76136;SDS011;65394;53.172;18.164;2023-02-12T05:27:43;10.80;;;3.10;;
76136;SDS011;65394;53.172;18.164;2023-02-12T05:30:10;8.70;;;3.00;;
76136;SDS011;65394;53.172;18.164;2023-02-12T05:32:37;10.10;;;3.00;;
76136;SDS011;65394;53.172;18.164;2023-02-12T05:35:05;9.20;;;2.90;;
76136;SDS011;65394;53.172;18.164;2023-02-12T05:37:35;7.20;;;2.40;;
76136;SDS011;65394;53.172;18.164;2023-02-12T05:40:02;8.30;;;2.30;;
76136;SDS011;65394;53.172;18.164;2023-02-12T05:42:31;11.00;;;2.10;;
76136;SDS011;65394;53.172;18.164;2023-02-12T05:44:58;7.30;;;2.20;;
76136;SDS011;65394;53.172;18.164;2023-02-12T05:47:24;7.70;;;2.20;;
76136;SDS011;65394;53.172;18.164;2023-02-12T05:49:51;8.80;;;2.20;;
76136;SDS011;65394;53.172;18.164;2023-02-12T05:52:17;8.90;;;3.30;;
76136;SDS011;65394;53.172;18.164;2023-02-12T05:54:44;7.60;;;2.30;;
76136;SDS011;65394;53.172;18.164;2023-02-12T05:57:13;7.70;;;2.70;;
76136;SDS011;65394;53.172;18.164;2023-02-12T05:59:40;7.60;;;2.30;;
76136;SDS011;65394;53.172;18.164;2023-02-12T06:02:06;10.60;;;4.00;;
76136;SDS011;65394;53.172;18.164;2023-02-12T06:04:33;11.80;;;4.60;;
76136;SDS011;65394;53.172;18.164;2023-02-12T06:07:00;13.70;;;4.70;;
76136;SDS011;65394;53.172;18.164;2023-02-12T06:09:26;13.70;;;4.60;;
76136;SDS011;65394;53.172;18.164;2023-02-12T06:11:53;10.90;;;3.50;;
76136;SDS011;65394;53.172;18.164;2023-02-12T06:14:20;10.10;;;3.80;;
76136;SDS011;65394;53.172;18.164;2023-02-12T06:16:47;9.90;;;2.60;;
76136;SDS011;65394;53.172;18.164;2023-02-12T06:19:15;9.50;;;2.30;;
76136;SDS011;65394;53.172;18.164;2023-02-12T06:21:43;7.30;;;2.30;;
76136;SDS011;65394;53.172;18.164;2023-02-12T06:24:10;8.20;;;2.60;;
76136;SDS011;65394;53.172;18.164;2023-02-12T06:26:38;9.70;;;2.60;;
76136;SDS011;65394;53.172;18.164;2023-02-12T06:29:05;9.20;;;3.10;;
76136;SDS011;65394;53.172;18.164;2023-02-12T06:31:33;7.40;;;2.20;;
76136;SDS011;65394;53.172;18.164;2023-02-12T06:34:02;9.20;;;2.00;;
76136;SDS011;65394;53.172;18.164;2023-02-12T06:36:32;7.60;;;2.10;;
76136;SDS011;65394;53.172;18.164;2023-02-12T06:39:00;8.40;;;2.30;;
76136;SDS011;65394;53.172;18.164;2023-02-12T06:41:27;6.50;;;2.10;;
76136;SDS011;65394;53.172;18.164;2023-02-12T06:43:55;6.80;;;2.20;;
76136;SDS011;65394;53.172;18.164;2023-02-12T06:46:21;14.70;;;4.20;;
76136;SDS011;65394;53.172;18.164;2023-02-12T06:48:51;16.30;;;5.80;;
76136;SDS011;65394;53.172;18.164;2023-02-12T06:51:19;10.50;;;3.80;;
76136;SDS011;65394;53.172;18.164;2023-02-12T06:53:49;10.10;;;2.70;;
76136;SDS011;65394;53.172;18.164;2023-02-12T06:56:17;12.60;;;2.90;;
76136;SDS011;65394;53.172;18.164;2023-02-12T06:58:46;7.50;;;2.40;;
76136;SDS011;65394;53.172;18.164;2023-02-12T07:01:18;7.60;;;2.40;;
76136;SDS011;65394;53.172;18.164;2023-02-12T07:03:48;10.10;;;2.60;;
76136;SDS011;65394;53.172;18.164;2023-02-12T07:06:33;7.60;;;2.50;;
76136;SDS011;65394;53.172;18.164;2023-02-12T07:09:02;10.00;;;2.20;;
76136;SDS011;65394;53.172;18.164;2023-02-12T07:11:30;6.90;;;1.80;;
76136;SDS011;65394;53.172;18.164;2023-02-12T07:13:59;7.30;;;2.40;;
76136;SDS011;65394;53.172;18.164;2023-02-12T07:16:26;6.70;;;2.20;;
76136;SDS011;65394;53.172;18.164;2023-02-12T07:18:52;6.80;;;2.10;;
76136;SDS011;65394;53.172;18.164;2023-02-12T07:21:19;7.10;;;2.20;;
76136;SDS011;65394;53.172;18.164;2023-02-12T07:23:48;8.20;;;2.20;;
76136;SDS011;65394;53.172;18.164;2023-02-12T07:26:16;7.90;;;2.60;;
76136;SDS011;65394;53.172;18.164;2023-02-12T07:28:43;7.90;;;2.70;;
76136;SDS011;65394;53.172;18.164;2023-02-12T07:33:38;7.60;;;2.80;;
76136;SDS011;65394;53.172;18.164;2023-02-12T07:36:06;10.10;;;3.50;;
76136;SDS011;65394;53.172;18.164;2023-02-12T07:38:35;8.60;;;2.60;;
76136;SDS011;65394;53.172;18.164;2023-02-12T07:41:15;8.10;;;2.40;;
76136;SDS011;65394;53.172;18.164;2023-02-12T07:43:45;8.30;;;3.00;;
76136;SDS011;65394;53.172;18.164;2023-02-12T07:46:15;6.80;;;2.60;;
76136;SDS011;65394;53.172;18.164;2023-02-12T07:48:43;8.00;;;3.00;;
76136;SDS011;65394;53.172;18.164;2023-02-12T07:51:12;7.90;;;3.20;;
76136;SDS011;65394;53.172;18.164;2023-02-12T07:53:40;8.70;;;3.70;;
76136;SDS011;65394;53.172;18.164;2023-02-12T07:56:11;10.10;;;3.90;;
76136;SDS011;65394;53.172;18.164;2023-02-12T07:58:40;10.40;;;4.40;;
76136;SDS011;65394;53.172;18.164;2023-02-12T08:01:14;10.30;;;4.40;;
76136;SDS011;65394;53.172;18.164;2023-02-12T08:03:49;9.50;;;3.80;;
76136;SDS011;65394;53.172;18.164;2023-02-12T08:06:17;7.30;;;3.10;;
76136;SDS011;65394;53.172;18.164;2023-02-12T08:08:46;10.10;;;3.80;;
76136;SDS011;65394;53.172;18.164;2023-02-12T08:11:13;7.60;;;3.60;;
76136;SDS011;65394;53.172;18.164;2023-02-12T08:13:40;9.80;;;3.90;;
76136;SDS011;65394;53.172;18.164;2023-02-12T08:16:09;6.90;;;3.00;;
76136;SDS011;65394;53.172;18.164;2023-02-12T08:18:37;7.60;;;2.90;;
76136;SDS011;65394;53.172;18.164;2023-02-12T08:21:05;7.70;;;3.20;;
76136;SDS011;65394;53.172;18.164;2023-02-12T08:23:34;7.50;;;2.90;;
76136;SDS011;65394;53.172;18.164;2023-02-12T08:26:08;8.30;;;2.90;;
76136;SDS011;65394;53.172;18.164;2023-02-12T08:28:40;8.20;;;3.20;;
76136;SDS011;65394;53.172;18.164;2023-02-12T08:31:22;6.70;;;2.50;;
76136;SDS011;65394;53.172;18.164;2023-02-12T08:33:51;8.80;;;3.70;;
76136;SDS011;65394;53.172;18.164;2023-02-12T08:36:19;9.10;;;3.50;;
76136;SDS011;65394;53.172;18.164;2023-02-12T08:38:51;6.90;;;2.60;;
76136;SDS011;65394;53.172;18.164;2023-02-12T08:41:19;6.50;;;2.30;;
76136;SDS011;65394;53.172;18.164;2023-02-12T08:43:48;7.10;;;2.10;;
76136;SDS011;65394;53.172;18.164;2023-02-12T08:46:21;5.90;;;2.20;;
76136;SDS011;65394;53.172;18.164;2023-02-12T08:48:57;7.70;;;3.00;;
76136;SDS011;65394;53.172;18.164;2023-02-12T08:51:27;6.20;;;2.10;;
76136;SDS011;65394;53.172;18.164;2023-02-12T08:54:12;7.20;;;2.70;;
76136;SDS011;65394;53.172;18.164;2023-02-12T08:56:41;7.40;;;2.80;;
76136;SDS011;65394;53.172;18.164;2023-02-12T08:59:09;9.10;;;3.20;;
76136;SDS011;65394;53.172;18.164;2023-02-12T09:01:37;9.50;;;3.60;;
76136;SDS011;65394;53.172;18.164;2023-02-12T09:04:06;9.00;;;4.40;;
76136;SDS011;65394;53.172;18.164;2023-02-12T09:06:38;8.80;;;4.00;;
76136;SDS011;65394;53.172;18.164;2023-02-12T09:09:05;8.40;;;3.90;;
76136;SDS011;65394;53.172;18.164;2023-02-12T09:11:32;8.80;;;4.60;;
76136;SDS011;65394;53.172;18.164;2023-02-12T09:14:04;8.30;;;4.20;;
76136;SDS011;65394;53.172;18.164;2023-02-12T09:16:34;9.50;;;4.40;;
76136;SDS011;65394;53.172;18.164;2023-02-12T09:19:02;9.90;;;3.80;;
76136;SDS011;65394;53.172;18.164;2023-02-12T09:21:29;11.10;;;4.60;;
76136;SDS011;65394;53.172;18.164;2023-02-12T09:23:56;9.20;;;4.50;;
76136;SDS011;65394;53.172;18.164;2023-02-12T09:26:23;11.60;;;5.50;;
76136;SDS011;65394;53.172;18.164;2023-02-12T09:28:54;9.60;;;4.40;;
76136;SDS011;65394;53.172;18.164;2023-02-12T09:31:22;10.20;;;4.80;;
76136;SDS011;65394;53.172;18.164;2023-02-12T09:33:52;10.30;;;4.50;;
76136;SDS011;65394;53.172;18.164;2023-02-12T09:36:36;8.30;;;4.20;;
76136;SDS011;65394;53.172;18.164;2023-02-12T09:39:03;8.50;;;4.20;;
76136;SDS011;65394;53.172;18.164;2023-02-12T09:41:41;8.30;;;4.00;;
76136;SDS011;65394;53.172;18.164;2023-02-12T09:46:59;9.30;;;3.60;;
76136;SDS011;65394;53.172;18.164;2023-02-12T09:52:14;9.60;;;3.70;;
76136;SDS011;65394;53.172;18.164;2023-02-12T09:54:42;7.70;;;3.10;;
76136;SDS011;65394;53.172;18.164;2023-02-12T09:57:29;8.90;;;4.20;;
76136;SDS011;65394;53.172;18.164;2023-02-12T10:02:37;8.80;;;3.40;;
76136;SDS011;65394;53.172;18.164;2023-02-12T10:05:15;8.90;;;3.50;;
76136;SDS011;65394;53.172;18.164;2023-02-12T10:07:54;9.40;;;3.50;;
76136;SDS011;65394;53.172;18.164;2023-02-12T10:21:55;10.80;;;4.10;;
76136;SDS011;65394;53.172;18.164;2023-02-12T10:27:16;7.80;;;3.10;;
76136;SDS011;65394;53.172;18.164;2023-02-12T10:29:50;9.20;;;3.90;;
76136;SDS011;65394;53.172;18.164;2023-02-12T10:32:29;9.20;;;3.40;;
76136;SDS011;65394;53.172;18.164;2023-02-12T10:34:58;10.00;;;4.50;;
76136;SDS011;65394;53.172;18.164;2023-02-12T10:37:36;10.60;;;3.50;;
76136;SDS011;65394;53.172;18.164;2023-02-12T10:40:20;10.70;;;4.00;;
76136;SDS011;65394;53.172;18.164;2023-02-12T10:42:53;10.90;;;4.80;;
76136;SDS011;65394;53.172;18.164;2023-02-12T10:45:29;13.30;;;5.10;;
76136;SDS011;65394;53.172;18.164;2023-02-12T10:53:15;10.40;;;4.10;;
76136;SDS011;65394;53.172;18.164;2023-02-12T10:55:46;10.90;;;4.60;;
76136;SDS011;65394;53.172;18.164;2023-02-12T10:58:23;14.00;;;5.40;;
76136;SDS011;65394;53.172;18.164;2023-02-12T11:00:54;11.00;;;4.30;;
76136;SDS011;65394;53.172;18.164;2023-02-12T11:03:27;10.90;;;4.30;;
76136;SDS011;65394;53.172;18.164;2023-02-12T11:05:55;9.40;;;4.30;;
76136;SDS011;65394;53.172;18.164;2023-02-12T11:08:30;11.20;;;4.70;;
76136;SDS011;65394;53.172;18.164;2023-02-12T11:11:04;10.00;;;4.90;;
76136;SDS011;65394;53.172;18.164;2023-02-12T11:13:34;12.60;;;4.50;;
76136;SDS011;65394;53.172;18.164;2023-02-12T11:16:01;13.10;;;5.50;;
76136;SDS011;65394;53.172;18.164;2023-02-12T11:18:29;11.40;;;5.10;;
76136;SDS011;65394;53.172;18.164;2023-02-12T11:21:11;13.50;;;5.50;;
76136;SDS011;65394;53.172;18.164;2023-02-12T11:23:39;12.20;;;4.80;;
76136;SDS011;65394;53.172;18.164;2023-02-12T11:28:54;11.20;;;4.40;;
76136;SDS011;65394;53.172;18.164;2023-02-12T11:31:25;9.60;;;3.80;;
76136;SDS011;65394;53.172;18.164;2023-02-12T11:36:39;13.80;;;6.20;;
76136;SDS011;65394;53.172;18.164;2023-02-12T11:39:17;12.20;;;5.30;;
76136;SDS011;65394;53.172;18.164;2023-02-12T11:42:15;15.70;;;6.10;;
76136;SDS011;65394;53.172;18.164;2023-02-12T11:44:47;13.00;;;6.40;;
76136;SDS011;65394;53.172;18.164;2023-02-12T11:47:19;15.90;;;5.80;;
76136;SDS011;65394;53.172;18.164;2023-02-12T11:49:49;13.80;;;5.50;;
76136;SDS011;65394;53.172;18.164;2023-02-12T11:52:37;16.60;;;6.70;;
76136;SDS011;65394;53.172;18.164;2023-02-12T11:55:10;15.10;;;6.60;;
76136;SDS011;65394;53.172;18.164;2023-02-12T11:58:00;13.90;;;5.70;;
76136;SDS011;65394;53.172;18.164;2023-02-12T12:00:29;14.60;;;5.80;;
76136;SDS011;65394;53.172;18.164;2023-02-12T12:03:05;12.40;;;5.20;;
76136;SDS011;65394;53.172;18.164;2023-02-12T12:05:37;15.40;;;5.60;;
76136;SDS011;65394;53.172;18.164;2023-02-12T12:08:13;14.30;;;5.20;;
76136;SDS011;65394;53.172;18.164;2023-02-12T12:10:48;17.30;;;6.30;;
76136;SDS011;65394;53.172;18.164;2023-02-12T12:13:21;14.90;;;5.80;;
76136;SDS011;65394;53.172;18.164;2023-02-12T12:15:57;12.30;;;5.10;;
76136;SDS011;65394;53.172;18.164;2023-02-12T12:18:55;15.50;;;6.20;;
76136;SDS011;65394;53.172;18.164;2023-02-12T12:21:59;14.20;;;5.30;;
76136;SDS011;65394;53.172;18.164;2023-02-12T12:24:37;17.70;;;6.10;;
76136;SDS011;65394;53.172;18.164;2023-02-12T12:27:16;17.00;;;6.40;;
76136;SDS011;65394;53.172;18.164;2023-02-12T12:30:10;12.10;;;4.30;;
76136;SDS011;65394;53.172;18.164;2023-02-12T12:32:45;15.70;;;5.70;;
76136;SDS011;65394;53.172;18.164;2023-02-12T12:35:15;16.70;;;6.20;;
76136;SDS011;65394;53.172;18.164;2023-02-12T12:37:59;19.00;;;6.30;;
76136;SDS011;65394;53.172;18.164;2023-02-12T12:40:38;16.40;;;5.90;;
76136;SDS011;65394;53.172;18.164;2023-02-12T12:43:17;16.20;;;5.40;;
76136;SDS011;65394;53.172;18.164;2023-02-12T12:45:49;12.90;;;5.00;;
76136;SDS011;65394;53.172;18.164;2023-02-12T12:48:25;17.20;;;6.20;;
76136;SDS011;65394;53.172;18.164;2023-02-12T12:59:59;20.60;;;6.50;;
76136;SDS011;65394;53.172;18.164;2023-02-12T13:02:38;18.40;;;7.00;;
76136;SDS011;65394;53.172;18.164;2023-02-12T13:08:18;21.30;;;6.70;;
76136;SDS011;65394;53.172;18.164;2023-02-12T13:10:56;14.30;;;5.50;;
76136;SDS011;65394;53.172;18.164;2023-02-12T13:13:35;20.60;;;7.20;;
76136;SDS011;65394;53.172;18.164;2023-02-12T13:16:21;14.90;;;6.90;;
76136;SDS011;65394;53.172;18.164;2023-02-12T13:24:31;22.80;;;7.90;;
76136;SDS011;65394;53.172;18.164;2023-02-12T13:27:27;17.60;;;7.30;;
76136;SDS011;65394;53.172;18.164;2023-02-12T13:33:00;20.80;;;6.60;;
76136;SDS011;65394;53.172;18.164;2023-02-12T13:35:32;17.50;;;7.40;;
76136;SDS011;65394;53.172;18.164;2023-02-12T13:38:03;18.10;;;8.40;;
76136;SDS011;65394;53.172;18.164;2023-02-12T13:40:34;17.10;;;6.90;;
76136;SDS011;65394;53.172;18.164;2023-02-12T13:43:05;24.40;;;7.10;;
76136;SDS011;65394;53.172;18.164;2023-02-12T13:45:54;23.00;;;8.20;;
76136;SDS011;65394;53.172;18.164;2023-02-12T13:48:48;16.30;;;6.60;;
76136;SDS011;65394;53.172;18.164;2023-02-12T13:57:12;24.40;;;6.10;;
76136;SDS011;65394;53.172;18.164;2023-02-12T13:59:43;22.40;;;8.30;;
76136;SDS011;65394;53.172;18.164;2023-02-12T14:04:40;20.80;;;7.90;;
76136;SDS011;65394;53.172;18.164;2023-02-12T14:07:14;16.90;;;6.10;;
76136;SDS011;65394;53.172;18.164;2023-02-12T14:09:43;18.80;;;8.10;;
76136;SDS011;65394;53.172;18.164;2023-02-12T14:12:13;27.30;;;10.20;;
76136;SDS011;65394;53.172;18.164;2023-02-12T14:20:27;23.40;;;9.40;;
76136;SDS011;65394;53.172;18.164;2023-02-12T14:26:10;23.20;;;7.60;;
76136;SDS011;65394;53.172;18.164;2023-02-12T14:28:54;21.40;;;7.40;;
76136;SDS011;65394;53.172;18.164;2023-02-12T14:34:38;20.30;;;8.30;;
76136;SDS011;65394;53.172;18.164;2023-02-12T14:36:39;17.60;;;7.00;;
76136;SDS011;65394;53.172;18.164;2023-02-12T14:41:45;20.20;;;6.80;;
76136;SDS011;65394;53.172;18.164;2023-02-12T14:47:01;17.00;;;6.70;;
76136;SDS011;65394;53.172;18.164;2023-02-12T14:49:35;19.00;;;6.00;;
76136;SDS011;65394;53.172;18.164;2023-02-12T14:52:11;15.00;;;6.20;;
76136;SDS011;65394;53.172;18.164;2023-02-12T14:54:50;18.60;;;6.00;;
76136;SDS011;65394;53.172;18.164;2023-02-12T14:57:23;16.60;;;6.50;;
76136;SDS011;65394;53.172;18.164;2023-02-12T15:02:43;10.80;;;4.60;;
76136;SDS011;65394;53.172;18.164;2023-02-12T15:05:15;19.20;;;6.00;;
76136;SDS011;65394;53.172;18.164;2023-02-12T15:07:49;13.10;;;4.80;;
76136;SDS011;65394;53.172;18.164;2023-02-12T15:10:22;13.70;;;4.30;;
76136;SDS011;65394;53.172;18.164;2023-02-12T15:13:08;13.80;;;4.10;;
76136;SDS011;65394;53.172;18.164;2023-02-12T15:15:46;13.60;;;4.40;;
76136;SDS011;65394;53.172;18.164;2023-02-12T15:21:00;18.50;;;4.70;;
76136;SDS011;65394;53.172;18.164;2023-02-12T15:23:40;13.20;;;4.40;;
76136;SDS011;65394;53.172;18.164;2023-02-12T15:26:12;13.30;;;3.50;;
76136;SDS011;65394;53.172;18.164;2023-02-12T15:28:42;14.90;;;4.40;;
76136;SDS011;65394;53.172;18.164;2023-02-12T15:31:14;14.90;;;3.80;;
76136;SDS011;65394;53.172;18.164;2023-02-12T15:33:44;11.60;;;3.40;;
76136;SDS011;65394;53.172;18.164;2023-02-12T15:36:15;11.90;;;3.70;;
76136;SDS011;65394;53.172;18.164;2023-02-12T15:38:47;17.80;;;4.80;;
76136;SDS011;65394;53.172;18.164;2023-02-12T15:41:29;16.50;;;5.00;;
76136;SDS011;65394;53.172;18.164;2023-02-12T15:47:09;10.20;;;3.00;;
76136;SDS011;65394;53.172;18.164;2023-02-12T15:49:39;8.60;;;3.10;;
76136;SDS011;65394;53.172;18.164;2023-02-12T15:52:09;13.20;;;4.40;;
76136;SDS011;65394;53.172;18.164;2023-02-12T15:54:43;14.60;;;3.80;;
76136;SDS011;65394;53.172;18.164;2023-02-12T15:57:12;12.80;;;4.20;;
76136;SDS011;65394;53.172;18.164;2023-02-12T15:59:48;10.90;;;3.50;;
76136;SDS011;65394;53.172;18.164;2023-02-12T16:02:19;12.40;;;3.50;;
76136;SDS011;65394;53.172;18.164;2023-02-12T16:04:47;12.90;;;4.00;;
76136;SDS011;65394;53.172;18.164;2023-02-12T16:07:14;14.20;;;3.80;;
76136;SDS011;65394;53.172;18.164;2023-02-12T16:09:43;15.10;;;4.10;;
76136;SDS011;65394;53.172;18.164;2023-02-12T16:12:14;12.40;;;3.30;;
76136;SDS011;65394;53.172;18.164;2023-02-12T16:14:46;16.10;;;4.10;;
76136;SDS011;65394;53.172;18.164;2023-02-12T16:19:54;13.20;;;3.80;;
76136;SDS011;65394;53.172;18.164;2023-02-12T16:22:31;11.90;;;3.40;;
76136;SDS011;65394;53.172;18.164;2023-02-12T16:25:02;14.80;;;3.80;;
76136;SDS011;65394;53.172;18.164;2023-02-12T16:27:33;11.60;;;3.10;;
76136;SDS011;65394;53.172;18.164;2023-02-12T16:30:04;16.10;;;3.80;;
76136;SDS011;65394;53.172;18.164;2023-02-12T16:32:37;13.40;;;3.10;;
76136;SDS011;65394;53.172;18.164;2023-02-12T16:42:58;12.20;;;3.10;;
76136;SDS011;65394;53.172;18.164;2023-02-12T16:48:15;15.40;;;3.80;;
76136;SDS011;65394;53.172;18.164;2023-02-12T16:50:43;15.60;;;4.70;;
76136;SDS011;65394;53.172;18.164;2023-02-12T16:55:49;13.40;;;3.50;;
76136;SDS011;65394;53.172;18.164;2023-02-12T16:58:16;15.30;;;3.60;;
76136;SDS011;65394;53.172;18.164;2023-02-12T17:00:42;14.30;;;3.50;;
76136;SDS011;65394;53.172;18.164;2023-02-12T17:03:12;11.80;;;3.60;;
76136;SDS011;65394;53.172;18.164;2023-02-12T17:05:40;18.00;;;3.90;;
76136;SDS011;65394;53.172;18.164;2023-02-12T17:08:15;13.30;;;3.90;;
76136;SDS011;65394;53.172;18.164;2023-02-12T17:10:43;13.90;;;3.20;;
76136;SDS011;65394;53.172;18.164;2023-02-12T17:13:10;16.40;;;3.90;;
76136;SDS011;65394;53.172;18.164;2023-02-12T17:15:39;12.30;;;3.60;;
76136;SDS011;65394;53.172;18.164;2023-02-12T17:18:10;13.80;;;4.00;;